Hoegh Trigger — LAUK7 — position and weather

sailwx.info

Track history (hours):
 
Tides and Currents Weather Stations Pressure Air Temp Water Temp Dewpoint Dewpoint Depression Visibility Wind Speed Wind Dir Waves Ship Positions

Hoegh Trigger

Last reported at 2018-Feb-17 07:26 UTC. Time now 2018-Feb-24 18:01 UTC.
Position N 01°19' E 103°20'.

Length 199 m; draft 10.2 m.

Type: Cargo ship. MMSI: 258389000.

Date/timePositionNaut miles runAvg speedWind from/ knotsBaromVisibWave heightAir tempDewpointWater temp
2018-Feb-17 07:26N 01°19' E 103°20'717.0
2018-Feb-17 07:00N 01°14' E 103°25'815.8
2018-Feb-17 06:30N 01°12' E 103°33'714.2
2018-Feb-17 05:59N 01°11' E 103°40'612.5
2018-Feb-17 05:30N 01°09' E 103°46'714.2
2018-Feb-17 05:00N 01°12' E 103°52'5 9.4
2018-Feb-17 04:30N 01°16' E 103°56'1 2.2
2018-Feb-17 03:54N 01°16' E 103°54'0 0.0
2018-Feb-17 02:12N 01°16' E 103°54'0 0.0
2018-Feb-17 01:44N 01°16' E 103°54'0 0.0
2018-Feb-17 01:14N 01°16' E 103°54'0 0.0
2018-Feb-17 00:47N 01°16' E 103°54'0 0.0
2018-Feb-17 00:26N 01°16' E 103°54'0 0.0
2018-Feb-16 23:28N 01°16' E 103°54'0 0.0
2018-Feb-16 22:50N 01°16' E 103°54'0 0.0
2018-Feb-16 22:26N 01°16' E 103°54'0 0.0
2018-Feb-16 21:51N 01°16' E 103°54'0 0.0
2018-Feb-16 21:27N 01°16' E 103°54'0 0.0
2018-Feb-16 20:42N 01°16' E 103°54'0 0.0
2018-Feb-16 20:29N 01°16' E 103°54'0 0.0
2018-Feb-16 20:00N 01°16' E 103°54'0 0.0
2018-Feb-16 19:23N 01°16' E 103°54'0 0.0
2018-Feb-16 18:50N 01°16' E 103°54'0 0.0
2018-Feb-16 18:22N 01°16' E 103°54'0 0.0
2018-Feb-16 17:55N 01°16' E 103°54'0 0.0
2018-Feb-16 17:02N 01°16' E 103°54'0 0.3
2018-Feb-16 16:58N 01°16' E 103°54'0 0.1
2018-Feb-16 16:30N 01°16' E 103°54'2 3.9
2018-Feb-16 16:00N 01°15' E 103°54'4 7.3
2018-Feb-16 15:30N 01°12' E 103°51'4 7.2
2018-Feb-16 15:00N 01°13' E 103°47'4 8.9
2018-Feb-16 14:31N 01°17' E 103°45'1 0.8
2018-Feb-16 13:30N 01°17' E 103°45'0 0.0
2018-Feb-16 12:54N 01°17' E 103°45'0 0.0
2018-Feb-16 12:30N 01°17' E 103°45'0 0.0
2018-Feb-16 11:48N 01°17' E 103°45'0 0.0
2018-Feb-16 11:15N 01°17' E 103°45'0 0.0
2018-Feb-16 10:48N 01°17' E 103°45'0 0.0
2018-Feb-16 09:45N 01°17' E 103°45'0 0.0
2018-Feb-16 09:27N 01°17' E 103°45'0 0.0
2018-Feb-16 09:00N 01°17' E 103°45'0 0.2
2018-Feb-16 08:30N 01°17' E 103°45'2 3.0
2018-Feb-16 08:00N 01°16' E 103°46'5 9.2
2018-Feb-16 07:30N 01°13' E 103°49'510.0
2018-Feb-16 07:00N 01°14' E 103°54'  
2018-Feb-11 21:40N 23°39' E 122°18'316.5
2018-Feb-11 21:30N 23°42' E 122°19'816.5
2018-Feb-11 21:01N 23°50' E 122°21'816.6
2018-Feb-11 20:31N 23°58' E 122°23'816.5
2018-Feb-11 20:01N 24°06' E 122°25'816.3
2018-Feb-11 19:30N 24°14' E 122°27'816.2
2018-Feb-11 19:00N 24°22' E 122°29'815.9
2018-Feb-11 18:31N 24°30' E 122°31'815.7
2018-Feb-11 18:00N 24°38' E 122°32'816.0
2018-Feb-11 17:30N 24°46' E 122°34'816.1
2018-Feb-11 17:01N 24°53' E 122°35'816.3
2018-Feb-11 16:30N 25°01' E 122°38'916.1
2018-Feb-11 15:59N 25°09' E 122°40'35614.5
2018-Feb-10 15:24N 31°06' E 122°25'511.0
2018-Feb-10 14:59N 31°06' E 122°20'712.9
2018-Feb-10 14:25N 31°10' E 122°12'712.9
2018-Feb-10 13:53N 31°14' E 122°06'613.3
2018-Feb-10 13:28N 31°15' E 121°59'13 0.9
2018-Feb-09 23:09N 31°19' E 121°45'412.3
2018-Feb-09 22:50N 31°17' E 121°49'211.9
2018-Feb-09 22:42N 31°16' E 121°51'710.3
2018-Feb-09 22:01N 31°15' E 121°59'14 9.5
2018-Feb-09 20:30N 31°09' E 122°14'  
Track history (hours):
 
Tides and Currents Weather Stations Pressure Air Temp Water Temp Dewpoint Dewpoint Depression Visibility Wind Speed Wind Dir Waves Ship Positions

Hoegh Trigger

Last reported at 2018-Feb-17 07:26 UTC. Time now 2018-Feb-24 18:01 UTC.
Position N 01°19' E 103°20'.

Length 199 m; draft 10.2 m.

Type: Cargo ship. MMSI: 258389000.

Date/timePositionNaut miles runAvg speedWind from/ knotsBaromVisibWave heightAir tempDewpointWater temp
2018-Feb-17 07:26N 01°19' E 103°20'717.0
2018-Feb-17 07:00N 01°14' E 103°25'815.8
2018-Feb-17 06:30N 01°12' E 103°33'714.2
2018-Feb-17 05:59N 01°11' E 103°40'612.5
2018-Feb-17 05:30N 01°09' E 103°46'714.2
2018-Feb-17 05:00N 01°12' E 103°52'5 9.4
2018-Feb-17 04:30N 01°16' E 103°56'1 2.2
2018-Feb-17 03:54N 01°16' E 103°54'0 0.0
2018-Feb-17 02:12N 01°16' E 103°54'0 0.0
2018-Feb-17 01:44N 01°16' E 103°54'0 0.0
2018-Feb-17 01:14N 01°16' E 103°54'0 0.0
2018-Feb-17 00:47N 01°16' E 103°54'0 0.0
2018-Feb-17 00:26N 01°16' E 103°54'0 0.0
2018-Feb-16 23:28N 01°16' E 103°54'0 0.0
2018-Feb-16 22:50N 01°16' E 103°54'0 0.0
2018-Feb-16 22:26N 01°16' E 103°54'0 0.0
2018-Feb-16 21:51N 01°16' E 103°54'0 0.0
2018-Feb-16 21:27N 01°16' E 103°54'0 0.0
2018-Feb-16 20:42N 01°16' E 103°54'0 0.0
2018-Feb-16 20:29N 01°16' E 103°54'0 0.0
2018-Feb-16 20:00N 01°16' E 103°54'0 0.0
2018-Feb-16 19:23N 01°16' E 103°54'0 0.0
2018-Feb-16 18:50N 01°16' E 103°54'0 0.0
2018-Feb-16 18:22N 01°16' E 103°54'0 0.0
2018-Feb-16 17:55N 01°16' E 103°54'0 0.0
2018-Feb-16 17:02N 01°16' E 103°54'0 0.3
2018-Feb-16 16:58N 01°16' E 103°54'0 0.1
2018-Feb-16 16:30N 01°16' E 103°54'2 3.9
2018-Feb-16 16:00N 01°15' E 103°54'4 7.3
2018-Feb-16 15:30N 01°12' E 103°51'4 7.2
2018-Feb-16 15:00N 01°13' E 103°47'4 8.9
2018-Feb-16 14:31N 01°17' E 103°45'1 0.8
2018-Feb-16 13:30N 01°17' E 103°45'0 0.0
2018-Feb-16 12:54N 01°17' E 103°45'0 0.0
2018-Feb-16 12:30N 01°17' E 103°45'0 0.0
2018-Feb-16 11:48N 01°17' E 103°45'0 0.0
2018-Feb-16 11:15N 01°17' E 103°45'0 0.0
2018-Feb-16 10:48N 01°17' E 103°45'0 0.0
2018-Feb-16 09:45N 01°17' E 103°45'0 0.0
2018-Feb-16 09:27N 01°17' E 103°45'0 0.0
2018-Feb-16 09:00N 01°17' E 103°45'0 0.2
2018-Feb-16 08:30N 01°17' E 103°45'2 3.0
2018-Feb-16 08:00N 01°16' E 103°46'5 9.2
2018-Feb-16 07:30N 01°13' E 103°49'510.0
2018-Feb-16 07:00N 01°14' E 103°54'  
2018-Feb-11 21:40N 23°39' E 122°18'316.5
2018-Feb-11 21:30N 23°42' E 122°19'816.5
2018-Feb-11 21:01N 23°50' E 122°21'816.6
2018-Feb-11 20:31N 23°58' E 122°23'816.5
2018-Feb-11 20:01N 24°06' E 122°25'816.3
2018-Feb-11 19:30N 24°14' E 122°27'816.2
2018-Feb-11 19:00N 24°22' E 122°29'815.9
2018-Feb-11 18:31N 24°30' E 122°31'815.7
2018-Feb-11 18:00N 24°38' E 122°32'816.0
2018-Feb-11 17:30N 24°46' E 122°34'816.1
2018-Feb-11 17:01N 24°53' E 122°35'816.3
2018-Feb-11 16:30N 25°01' E 122°38'916.1
2018-Feb-11 15:59N 25°09' E 122°40'35614.5
2018-Feb-10 15:24N 31°06' E 122°25'511.0
2018-Feb-10 14:59N 31°06' E 122°20'712.9
2018-Feb-10 14:25N 31°10' E 122°12'712.9
2018-Feb-10 13:53N 31°14' E 122°06'613.3
2018-Feb-10 13:28N 31°15' E 121°59'13 0.9
2018-Feb-09 23:09N 31°19' E 121°45'412.3
2018-Feb-09 22:50N 31°17' E 121°49'211.9
2018-Feb-09 22:42N 31°16' E 121°51'710.3
2018-Feb-09 22:01N 31°15' E 121°59'14 9.5
2018-Feb-09 20:30N 31°09' E 122°14'  

Dump ship's entire track history